sensor_id;sensor_type;location;lat;lon;timestamp;temperature;humidity
6421;DHT22;3243;50.958;7.012;2022-10-16T00:01:29;14.00;99.90
6421;DHT22;3243;50.958;7.012;2022-10-16T00:03:58;13.90;99.90
6421;DHT22;3243;50.958;7.012;2022-10-16T00:06:26;13.90;99.90
6421;DHT22;3243;50.958;7.012;2022-10-16T00:08:53;13.90;99.90
6421;DHT22;3243;50.958;7.012;2022-10-16T00:11:32;13.90;99.90
6421;DHT22;3243;50.958;7.012;2022-10-16T00:14:08;14.00;99.90
6421;DHT22;3243;50.958;7.012;2022-10-16T00:16:35;14.00;99.90
6421;DHT22;3243;50.958;7.012;2022-10-16T00:19:02;14.00;99.90
6421;DHT22;3243;50.958;7.012;2022-10-16T00:21:30;14.00;99.90
6421;DHT22;3243;50.958;7.012;2022-10-16T00:24:02;13.90;99.90
6421;DHT22;3243;50.958;7.012;2022-10-16T00:26:32;14.00;99.90
6421;DHT22;3243;50.958;7.012;2022-10-16T00:33:53;13.90;99.90
6421;DHT22;3243;50.958;7.012;2022-10-16T00:36:22;14.00;99.90
6421;DHT22;3243;50.958;7.012;2022-10-16T00:38:51;13.90;99.90
6421;DHT22;3243;50.958;7.012;2022-10-16T00:41:23;13.90;99.90
6421;DHT22;3243;50.958;7.012;2022-10-16T00:43:59;13.80;99.90
6421;DHT22;3243;50.958;7.012;2022-10-16T00:46:41;13.80;99.90
6421;DHT22;3243;50.958;7.012;2022-10-16T00:49:11;13.80;99.90
6421;DHT22;3243;50.958;7.012;2022-10-16T00:51:50;13.60;99.90
6421;DHT22;3243;50.958;7.012;2022-10-16T00:54:21;13.60;99.90
6421;DHT22;3243;50.958;7.012;2022-10-16T00:56:49;13.60;99.90
6421;DHT22;3243;50.958;7.012;2022-10-16T00:59:24;13.50;99.90
6421;DHT22;3243;50.958;7.012;2022-10-16T01:01:52;13.50;99.90
6421;DHT22;3243;50.958;7.012;2022-10-16T01:04:20;13.40;99.90
6421;DHT22;3243;50.958;7.012;2022-10-16T01:12:38;13.30;99.90
6421;DHT22;3243;50.958;7.012;2022-10-16T01:15:13;13.30;99.90
6421;DHT22;3243;50.958;7.012;2022-10-16T01:20:26;13.20;99.90
6421;DHT22;3243;50.958;7.012;2022-10-16T01:23:17;13.20;99.90
6421;DHT22;3243;50.958;7.012;2022-10-16T01:28:15;13.10;99.90
6421;DHT22;3243;50.958;7.012;2022-10-16T01:30:45;13.10;99.90
6421;DHT22;3243;50.958;7.012;2022-10-16T01:33:26;13.10;99.90
6421;DHT22;3243;50.958;7.012;2022-10-16T01:35:58;13.00;99.90
6421;DHT22;3243;50.958;7.012;2022-10-16T01:38:33;13.00;99.90
6421;DHT22;3243;50.958;7.012;2022-10-16T01:41:42;13.00;99.90
6421;DHT22;3243;50.958;7.012;2022-10-16T01:44:26;13.00;99.90
6421;DHT22;3243;50.958;7.012;2022-10-16T01:46:56;13.00;99.90
6421;DHT22;3243;50.958;7.012;2022-10-16T01:49:25;12.90;99.90
6421;DHT22;3243;50.958;7.012;2022-10-16T01:51:56;12.90;99.90
6421;DHT22;3243;50.958;7.012;2022-10-16T01:54:26;12.90;99.90
6421;DHT22;3243;50.958;7.012;2022-10-16T01:56:55;12.90;99.90
6421;DHT22;3243;50.958;7.012;2022-10-16T01:59:25;12.80;99.90
6421;DHT22;3243;50.958;7.012;2022-10-16T02:01:59;12.90;99.90
6421;DHT22;3243;50.958;7.012;2022-10-16T02:04:40;12.90;99.90
6421;DHT22;3243;50.958;7.012;2022-10-16T02:07:10;12.90;99.90
6421;DHT22;3243;50.958;7.012;2022-10-16T02:09:37;12.90;99.90
6421;DHT22;3243;50.958;7.012;2022-10-16T02:12:19;13.00;99.90
6421;DHT22;3243;50.958;7.012;2022-10-16T02:14:47;13.00;99.90
6421;DHT22;3243;50.958;7.012;2022-10-16T02:17:16;13.10;99.90
6421;DHT22;3243;50.958;7.012;2022-10-16T02:19:46;13.10;99.90
6421;DHT22;3243;50.958;7.012;2022-10-16T02:22:33;13.10;99.90
6421;DHT22;3243;50.958;7.012;2022-10-16T02:27:54;13.30;99.90
6421;DHT22;3243;50.958;7.012;2022-10-16T02:30:33;13.30;99.90
6421;DHT22;3243;50.958;7.012;2022-10-16T02:33:03;13.30;99.90
6421;DHT22;3243;50.958;7.012;2022-10-16T02:35:31;13.30;99.90
6421;DHT22;3243;50.958;7.012;2022-10-16T02:37:59;13.30;99.90
6421;DHT22;3243;50.958;7.012;2022-10-16T02:40:26;13.40;99.90
6421;DHT22;3243;50.958;7.012;2022-10-16T02:42:54;13.30;99.90
6421;DHT22;3243;50.958;7.012;2022-10-16T02:45:22;13.40;99.90
6421;DHT22;3243;50.958;7.012;2022-10-16T02:47:49;13.30;99.90
6421;DHT22;3243;50.958;7.012;2022-10-16T02:50:16;13.40;99.90
6421;DHT22;3243;50.958;7.012;2022-10-16T02:52:43;13.40;99.90
6421;DHT22;3243;50.958;7.012;2022-10-16T02:55:09;13.40;99.90
6421;DHT22;3243;50.958;7.012;2022-10-16T02:57:36;13.40;99.90
6421;DHT22;3243;50.958;7.012;2022-10-16T03:00:04;13.40;99.90
6421;DHT22;3243;50.958;7.012;2022-10-16T03:02:31;13.50;99.90
6421;DHT22;3243;50.958;7.012;2022-10-16T03:04:58;13.50;99.90
6421;DHT22;3243;50.958;7.012;2022-10-16T03:07:25;13.50;99.90
6421;DHT22;3243;50.958;7.012;2022-10-16T03:09:52;13.50;99.90
6421;DHT22;3243;50.958;7.012;2022-10-16T03:12:18;13.50;99.90
6421;DHT22;3243;50.958;7.012;2022-10-16T03:14:45;13.50;99.90
6421;DHT22;3243;50.958;7.012;2022-10-16T03:17:12;13.40;99.90
6421;DHT22;3243;50.958;7.012;2022-10-16T03:19:39;13.30;99.90
6421;DHT22;3243;50.958;7.012;2022-10-16T03:22:06;13.30;99.90
6421;DHT22;3243;50.958;7.012;2022-10-16T03:24:32;13.30;99.90
6421;DHT22;3243;50.958;7.012;2022-10-16T03:26:59;15.00;99.90
6421;DHT22;3243;50.958;7.012;2022-10-16T03:29:26;13.10;99.90
6421;DHT22;3243;50.958;7.012;2022-10-16T03:31:58;13.20;99.90
6421;DHT22;3243;50.958;7.012;2022-10-16T03:34:25;13.00;99.90
6421;DHT22;3243;50.958;7.012;2022-10-16T03:36:52;13.00;99.90
6421;DHT22;3243;50.958;7.012;2022-10-16T03:39:19;13.00;99.90
6421;DHT22;3243;50.958;7.012;2022-10-16T03:41:45;13.00;99.90
6421;DHT22;3243;50.958;7.012;2022-10-16T03:44:15;13.00;99.90
6421;DHT22;3243;50.958;7.012;2022-10-16T03:46:42;13.00;99.90
6421;DHT22;3243;50.958;7.012;2022-10-16T03:49:09;13.00;99.90
6421;DHT22;3243;50.958;7.012;2022-10-16T03:51:36;13.10;99.90
6421;DHT22;3243;50.958;7.012;2022-10-16T03:54:02;13.10;99.90
6421;DHT22;3243;50.958;7.012;2022-10-16T03:56:29;13.10;99.90
6421;DHT22;3243;50.958;7.012;2022-10-16T03:58:56;13.10;99.90
6421;DHT22;3243;50.958;7.012;2022-10-16T04:01:22;13.10;99.90
6421;DHT22;3243;50.958;7.012;2022-10-16T04:03:49;13.10;99.90
6421;DHT22;3243;50.958;7.012;2022-10-16T04:06:16;13.10;99.90
6421;DHT22;3243;50.958;7.012;2022-10-16T04:08:44;13.20;99.90
6421;DHT22;3243;50.958;7.012;2022-10-16T04:11:11;13.20;99.90
6421;DHT22;3243;50.958;7.012;2022-10-16T04:13:37;13.30;99.90
6421;DHT22;3243;50.958;7.012;2022-10-16T04:16:04;13.30;99.90
6421;DHT22;3243;50.958;7.012;2022-10-16T04:18:31;13.30;99.90
6421;DHT22;3243;50.958;7.012;2022-10-16T04:21:02;13.30;99.90
6421;DHT22;3243;50.958;7.012;2022-10-16T04:23:29;13.40;99.90
6421;DHT22;3243;50.958;7.012;2022-10-16T04:25:56;13.40;99.90
6421;DHT22;3243;50.958;7.012;2022-10-16T04:28:23;13.40;99.90
6421;DHT22;3243;50.958;7.012;2022-10-16T04:30:49;13.40;99.90
6421;DHT22;3243;50.958;7.012;2022-10-16T04:33:17;13.40;99.90
6421;DHT22;3243;50.958;7.012;2022-10-16T04:35:43;13.30;99.90
6421;DHT22;3243;50.958;7.012;2022-10-16T04:38:10;13.40;99.90
6421;DHT22;3243;50.958;7.012;2022-10-16T04:40:36;13.30;99.90
6421;DHT22;3243;50.958;7.012;2022-10-16T04:43:04;13.30;99.90
6421;DHT22;3243;50.958;7.012;2022-10-16T04:45:31;13.30;99.90
6421;DHT22;3243;50.958;7.012;2022-10-16T04:47:58;13.30;99.90
6421;DHT22;3243;50.958;7.012;2022-10-16T04:50:25;13.30;99.90
6421;DHT22;3243;50.958;7.012;2022-10-16T04:52:52;13.30;99.90
6421;DHT22;3243;50.958;7.012;2022-10-16T04:55:19;13.30;99.90
6421;DHT22;3243;50.958;7.012;2022-10-16T04:57:45;13.20;99.90
6421;DHT22;3243;50.958;7.012;2022-10-16T05:00:12;13.20;99.90
6421;DHT22;3243;50.958;7.012;2022-10-16T05:02:39;13.20;99.90
6421;DHT22;3243;50.958;7.012;2022-10-16T05:05:06;13.20;99.90
6421;DHT22;3243;50.958;7.012;2022-10-16T05:07:33;13.20;99.90
6421;DHT22;3243;50.958;7.012;2022-10-16T05:10:00;13.30;99.90
6421;DHT22;3243;50.958;7.012;2022-10-16T05:12:26;13.20;99.90
6421;DHT22;3243;50.958;7.012;2022-10-16T05:14:53;13.10;99.90
6421;DHT22;3243;50.958;7.012;2022-10-16T05:17:25;13.10;99.90
6421;DHT22;3243;50.958;7.012;2022-10-16T05:19:52;13.20;99.90
6421;DHT22;3243;50.958;7.012;2022-10-16T05:22:19;13.20;99.90
6421;DHT22;3243;50.958;7.012;2022-10-16T05:24:46;13.30;99.90
6421;DHT22;3243;50.958;7.012;2022-10-16T05:27:13;13.30;99.90
6421;DHT22;3243;50.958;7.012;2022-10-16T05:29:46;13.30;99.90
6421;DHT22;3243;50.958;7.012;2022-10-16T05:32:17;13.40;99.90
6421;DHT22;3243;50.958;7.012;2022-10-16T05:34:45;13.40;99.90
6421;DHT22;3243;50.958;7.012;2022-10-16T05:37:12;13.50;99.90
6421;DHT22;3243;50.958;7.012;2022-10-16T05:39:39;13.40;99.90
6421;DHT22;3243;50.958;7.012;2022-10-16T05:42:05;13.30;99.90
6421;DHT22;3243;50.958;7.012;2022-10-16T05:44:32;13.40;99.90
6421;DHT22;3243;50.958;7.012;2022-10-16T05:47:04;13.30;99.90
6421;DHT22;3243;50.958;7.012;2022-10-16T05:49:30;13.30;99.90
6421;DHT22;3243;50.958;7.012;2022-10-16T05:51:57;13.30;99.90
6421;DHT22;3243;50.958;7.012;2022-10-16T05:54:24;13.30;99.90
6421;DHT22;3243;50.958;7.012;2022-10-16T05:56:51;13.30;99.90
6421;DHT22;3243;50.958;7.012;2022-10-16T05:59:17;13.20;99.90
6421;DHT22;3243;50.958;7.012;2022-10-16T06:01:44;13.10;99.90
6421;DHT22;3243;50.958;7.012;2022-10-16T06:04:11;13.10;99.90
6421;DHT22;3243;50.958;7.012;2022-10-16T06:06:37;13.00;99.90
6421;DHT22;3243;50.958;7.012;2022-10-16T06:09:04;13.00;99.90
6421;DHT22;3243;50.958;7.012;2022-10-16T06:11:33;12.90;99.90
6421;DHT22;3243;50.958;7.012;2022-10-16T06:14:01;13.00;99.90
6421;DHT22;3243;50.958;7.012;2022-10-16T06:16:34;13.00;99.90
6421;DHT22;3243;50.958;7.012;2022-10-16T06:19:01;12.90;99.90
6421;DHT22;3243;50.958;7.012;2022-10-16T06:21:29;13.00;99.90
6421;DHT22;3243;50.958;7.012;2022-10-16T06:23:56;13.00;99.90
6421;DHT22;3243;50.958;7.012;2022-10-16T06:26:26;13.10;99.90
6421;DHT22;3243;50.958;7.012;2022-10-16T06:28:55;13.10;99.90
6421;DHT22;3243;50.958;7.012;2022-10-16T06:31:22;13.10;99.90
6421;DHT22;3243;50.958;7.012;2022-10-16T06:33:52;13.20;99.90
6421;DHT22;3243;50.958;7.012;2022-10-16T06:36:20;13.30;99.90
6421;DHT22;3243;50.958;7.012;2022-10-16T06:38:47;13.30;99.90
6421;DHT22;3243;50.958;7.012;2022-10-16T06:41:18;13.40;99.90
6421;DHT22;3243;50.958;7.012;2022-10-16T06:43:46;13.50;99.90
6421;DHT22;3243;50.958;7.012;2022-10-16T06:46:15;13.80;99.90
6421;DHT22;3243;50.958;7.012;2022-10-16T06:48:42;13.90;99.90
6421;DHT22;3243;50.958;7.012;2022-10-16T06:51:14;14.00;99.90
6421;DHT22;3243;50.958;7.012;2022-10-16T06:53:52;14.10;99.90
6421;DHT22;3243;50.958;7.012;2022-10-16T06:56:30;14.30;99.90
6421;DHT22;3243;50.958;7.012;2022-10-16T06:58:58;14.40;99.90
6421;DHT22;3243;50.958;7.012;2022-10-16T07:01:26;14.50;99.90
6421;DHT22;3243;50.958;7.012;2022-10-16T07:06:22;14.60;99.90
6421;DHT22;3243;50.958;7.012;2022-10-16T07:08:49;14.70;99.90
6421;DHT22;3243;50.958;7.012;2022-10-16T07:11:19;14.80;99.90
6421;DHT22;3243;50.958;7.012;2022-10-16T07:13:47;14.90;99.90
6421;DHT22;3243;50.958;7.012;2022-10-16T07:16:28;15.00;99.90
6421;DHT22;3243;50.958;7.012;2022-10-16T07:19:00;15.10;99.90
6421;DHT22;3243;50.958;7.012;2022-10-16T07:21:32;15.20;99.90
6421;DHT22;3243;50.958;7.012;2022-10-16T07:24:04;15.30;99.90
6421;DHT22;3243;50.958;7.012;2022-10-16T07:26:35;15.40;99.90
6421;DHT22;3243;50.958;7.012;2022-10-16T07:29:02;15.40;99.90
6421;DHT22;3243;50.958;7.012;2022-10-16T07:33:59;15.50;99.90
6421;DHT22;3243;50.958;7.012;2022-10-16T07:38:53;15.50;99.90
6421;DHT22;3243;50.958;7.012;2022-10-16T07:41:26;15.50;99.90
6421;DHT22;3243;50.958;7.012;2022-10-16T07:43:53;15.40;99.90
6421;DHT22;3243;50.958;7.012;2022-10-16T07:46:22;15.30;99.90
6421;DHT22;3243;50.958;7.012;2022-10-16T07:48:49;15.20;99.90
6421;DHT22;3243;50.958;7.012;2022-10-16T07:51:18;15.00;99.90
6421;DHT22;3243;50.958;7.012;2022-10-16T07:53:46;14.90;99.90
6421;DHT22;3243;50.958;7.012;2022-10-16T07:56:13;14.80;99.90
6421;DHT22;3243;50.958;7.012;2022-10-16T07:58:40;14.70;99.90
6421;DHT22;3243;50.958;7.012;2022-10-16T08:01:13;14.70;99.90
6421;DHT22;3243;50.958;7.012;2022-10-16T08:03:45;14.70;99.90
6421;DHT22;3243;50.958;7.012;2022-10-16T08:06:12;14.70;99.90
6421;DHT22;3243;50.958;7.012;2022-10-16T08:08:38;14.60;99.90
6421;DHT22;3243;50.958;7.012;2022-10-16T08:13:32;14.70;99.90
6421;DHT22;3243;50.958;7.012;2022-10-16T08:18:26;14.80;99.90
6421;DHT22;3243;50.958;7.012;2022-10-16T08:20:58;14.90;99.90
6421;DHT22;3243;50.958;7.012;2022-10-16T08:23:27;15.00;99.90
6421;DHT22;3243;50.958;7.012;2022-10-16T08:25:54;15.10;99.90
6421;DHT22;3243;50.958;7.012;2022-10-16T08:28:22;15.30;99.90
6421;DHT22;3243;50.958;7.012;2022-10-16T08:33:16;15.60;99.90
6421;DHT22;3243;50.958;7.012;2022-10-16T08:35:50;15.70;99.90
6421;DHT22;3243;50.958;7.012;2022-10-16T08:38:17;15.80;99.90
6421;DHT22;3243;50.958;7.012;2022-10-16T08:48:51;15.80;99.90
6421;DHT22;3243;50.958;7.012;2022-10-16T08:51:27;15.90;99.90
6421;DHT22;3243;50.958;7.012;2022-10-16T08:54:11;16.00;99.90
6421;DHT22;3243;50.958;7.012;2022-10-16T08:56:42;16.10;99.90
6421;DHT22;3243;50.958;7.012;2022-10-16T08:59:10;16.20;99.90
6421;DHT22;3243;50.958;7.012;2022-10-16T09:01:41;16.20;99.90
6421;DHT22;3243;50.958;7.012;2022-10-16T09:07:01;16.20;99.90
6421;DHT22;3243;50.958;7.012;2022-10-16T09:12:42;16.40;99.90
6421;DHT22;3243;50.958;7.012;2022-10-16T09:15:48;16.40;99.90
6421;DHT22;3243;50.958;7.012;2022-10-16T09:23:37;16.40;99.90
6421;DHT22;3243;50.958;7.012;2022-10-16T09:26:05;16.40;99.90
6421;DHT22;3243;50.958;7.012;2022-10-16T09:28:32;16.60;99.90
6421;DHT22;3243;50.958;7.012;2022-10-16T09:30:59;16.60;99.90
6421;DHT22;3243;50.958;7.012;2022-10-16T09:33:30;16.60;99.90
6421;DHT22;3243;50.958;7.012;2022-10-16T09:35:59;16.70;99.90
6421;DHT22;3243;50.958;7.012;2022-10-16T09:38:30;16.80;99.90
6421;DHT22;3243;50.958;7.012;2022-10-16T09:40:59;16.80;99.90
6421;DHT22;3243;50.958;7.012;2022-10-16T09:43:36;16.90;99.90
6421;DHT22;3243;50.958;7.012;2022-10-16T09:48:47;17.00;99.90
6421;DHT22;3243;50.958;7.012;2022-10-16T09:56:26;17.10;99.90
6421;DHT22;3243;50.958;7.012;2022-10-16T09:58:58;17.10;99.90
6421;DHT22;3243;50.958;7.012;2022-10-16T10:01:49;17.10;99.90
6421;DHT22;3243;50.958;7.012;2022-10-16T10:04:21;17.20;99.90
6421;DHT22;3243;50.958;7.012;2022-10-16T10:06:56;17.30;99.90
6421;DHT22;3243;50.958;7.012;2022-10-16T10:12:05;17.40;99.90
6421;DHT22;3243;50.958;7.012;2022-10-16T10:19:46;17.50;99.90
6421;DHT22;3243;50.958;7.012;2022-10-16T10:38:50;18.30;99.90
6421;DHT22;3243;50.958;7.012;2022-10-16T10:44:15;18.20;99.90
6421;DHT22;3243;50.958;7.012;2022-10-16T10:46:51;18.20;99.90
6421;DHT22;3243;50.958;7.012;2022-10-16T11:03:37;18.60;99.90
6421;DHT22;3243;50.958;7.012;2022-10-16T11:06:08;18.70;99.90
6421;DHT22;3243;50.958;7.012;2022-10-16T11:08:43;18.80;99.90
6421;DHT22;3243;50.958;7.012;2022-10-16T11:11:25;18.70;99.90
6421;DHT22;3243;50.958;7.012;2022-10-16T11:16:49;18.80;99.90
6421;DHT22;3243;50.958;7.012;2022-10-16T11:19:40;18.60;99.90
6421;DHT22;3243;50.958;7.012;2022-10-16T11:22:39;18.50;99.90
6421;DHT22;3243;50.958;7.012;2022-10-16T11:25:18;18.60;99.90
6421;DHT22;3243;50.958;7.012;2022-10-16T11:30:50;18.90;99.90
6421;DHT22;3243;50.958;7.012;2022-10-16T11:36:14;19.10;99.90
6421;DHT22;3243;50.958;7.012;2022-10-16T11:38:48;19.00;99.90
6421;DHT22;3243;50.958;7.012;2022-10-16T11:44:00;18.90;99.90
6421;DHT22;3243;50.958;7.012;2022-10-16T11:46:32;19.00;99.90
6421;DHT22;3243;50.958;7.012;2022-10-16T11:49:25;19.10;99.90
6421;DHT22;3243;50.958;7.012;2022-10-16T11:57:24;19.70;99.90
6421;DHT22;3243;50.958;7.012;2022-10-16T12:00:10;19.70;99.90
6421;DHT22;3243;50.958;7.012;2022-10-16T12:02:56;19.80;99.90
6421;DHT22;3243;50.958;7.012;2022-10-16T12:08:26;19.80;99.90
6421;DHT22;3243;50.958;7.012;2022-10-16T12:10:53;19.80;99.90
6421;DHT22;3243;50.958;7.012;2022-10-16T12:13:32;19.60;99.90
6421;DHT22;3243;50.958;7.012;2022-10-16T12:16:06;19.60;99.90
6421;DHT22;3243;50.958;7.012;2022-10-16T12:18:33;19.60;99.90
6421;DHT22;3243;50.958;7.012;2022-10-16T12:21:00;19.40;99.90
6421;DHT22;3243;50.958;7.012;2022-10-16T12:23:36;19.50;99.90
6421;DHT22;3243;50.958;7.012;2022-10-16T12:26:04;19.40;99.90
6421;DHT22;3243;50.958;7.012;2022-10-16T12:28:32;19.40;99.90
6421;DHT22;3243;50.958;7.012;2022-10-16T12:31:07;19.50;99.90
6421;DHT22;3243;50.958;7.012;2022-10-16T12:33:40;19.60;99.90
6421;DHT22;3243;50.958;7.012;2022-10-16T12:38:54;19.70;99.90
6421;DHT22;3243;50.958;7.012;2022-10-16T12:41:32;19.80;99.90
6421;DHT22;3243;50.958;7.012;2022-10-16T12:44:00;19.90;99.90
6421;DHT22;3243;50.958;7.012;2022-10-16T12:51:43;20.00;99.90
6421;DHT22;3243;50.958;7.012;2022-10-16T12:54:16;19.90;99.90
6421;DHT22;3243;50.958;7.012;2022-10-16T13:02:08;19.60;99.90
6421;DHT22;3243;50.958;7.012;2022-10-16T13:19:20;19.80;99.90
6421;DHT22;3243;50.958;7.012;2022-10-16T13:22:15;16.90;99.90
6421;DHT22;3243;50.958;7.012;2022-10-16T13:27:52;19.60;99.90
6421;DHT22;3243;50.958;7.012;2022-10-16T13:30:29;19.50;99.90
6421;DHT22;3243;50.958;7.012;2022-10-16T13:36:02;19.60;99.90
6421;DHT22;3243;50.958;7.012;2022-10-16T13:38:34;19.60;99.90
6421;DHT22;3243;50.958;7.012;2022-10-16T13:41:16;19.70;99.90
6421;DHT22;3243;50.958;7.012;2022-10-16T13:43:50;19.80;99.90
6421;DHT22;3243;50.958;7.012;2022-10-16T13:46:22;19.80;99.90
6421;DHT22;3243;50.958;7.012;2022-10-16T13:49:01;19.90;99.90
6421;DHT22;3243;50.958;7.012;2022-10-16T13:51:28;19.90;99.90
6421;DHT22;3243;50.958;7.012;2022-10-16T13:53:56;19.90;99.90
6421;DHT22;3243;50.958;7.012;2022-10-16T13:56:28;20.10;99.90
6421;DHT22;3243;50.958;7.012;2022-10-16T13:59:33;20.30;99.90
6421;DHT22;3243;50.958;7.012;2022-10-16T14:01:56;20.40;99.90
6421;DHT22;3243;50.958;7.012;2022-10-16T14:04:24;20.30;99.90
6421;DHT22;3243;50.958;7.012;2022-10-16T14:06:51;20.30;99.90
6421;DHT22;3243;50.958;7.012;2022-10-16T14:09:25;20.20;99.90
6421;DHT22;3243;50.958;7.012;2022-10-16T14:12:01;20.00;99.90
6421;DHT22;3243;50.958;7.012;2022-10-16T14:14:40;19.90;99.90
6421;DHT22;3243;50.958;7.012;2022-10-16T14:17:14;19.80;99.90
6421;DHT22;3243;50.958;7.012;2022-10-16T14:19:46;19.70;99.90
6421;DHT22;3243;50.958;7.012;2022-10-16T14:25:02;19.70;99.90
6421;DHT22;3243;50.958;7.012;2022-10-16T14:27:34;19.80;99.90
6421;DHT22;3243;50.958;7.012;2022-10-16T14:30:24;19.80;99.90
6421;DHT22;3243;50.958;7.012;2022-10-16T14:32:57;19.70;99.90
6421;DHT22;3243;50.958;7.012;2022-10-16T14:35:36;19.70;99.90
6421;DHT22;3243;50.958;7.012;2022-10-16T14:38:05;19.60;99.90
6421;DHT22;3243;50.958;7.012;2022-10-16T14:40:35;19.60;99.90
6421;DHT22;3243;50.958;7.012;2022-10-16T14:43:04;19.60;99.90
6421;DHT22;3243;50.958;7.012;2022-10-16T14:45:34;19.70;99.90
6421;DHT22;3243;50.958;7.012;2022-10-16T14:48:06;19.60;99.90
6421;DHT22;3243;50.958;7.012;2022-10-16T14:50:45;19.60;99.90
6421;DHT22;3243;50.958;7.012;2022-10-16T14:53:12;19.60;99.90
6421;DHT22;3243;50.958;7.012;2022-10-16T14:55:40;19.70;99.90
6421;DHT22;3243;50.958;7.012;2022-10-16T14:58:18;19.80;99.90
6421;DHT22;3243;50.958;7.012;2022-10-16T15:00:45;19.90;99.90
6421;DHT22;3243;50.958;7.012;2022-10-16T15:03:13;19.90;99.90
6421;DHT22;3243;50.958;7.012;2022-10-16T15:05:39;19.80;99.90
6421;DHT22;3243;50.958;7.012;2022-10-16T15:08:06;19.80;99.90
6421;DHT22;3243;50.958;7.012;2022-10-16T15:10:39;19.70;99.90
6421;DHT22;3243;50.958;7.012;2022-10-16T15:13:08;19.70;99.90
6421;DHT22;3243;50.958;7.012;2022-10-16T15:15:36;19.60;99.90
6421;DHT22;3243;50.958;7.012;2022-10-16T15:18:04;19.50;99.90
6421;DHT22;3243;50.958;7.012;2022-10-16T15:20:33;19.50;99.90
6421;DHT22;3243;50.958;7.012;2022-10-16T15:23:10;19.30;99.90
6421;DHT22;3243;50.958;7.012;2022-10-16T15:25:46;19.20;99.90
6421;DHT22;3243;50.958;7.012;2022-10-16T15:28:14;19.10;99.90
6421;DHT22;3243;50.958;7.012;2022-10-16T15:30:41;19.10;99.90
6421;DHT22;3243;50.958;7.012;2022-10-16T15:33:15;19.00;99.90
6421;DHT22;3243;50.958;7.012;2022-10-16T15:35:42;19.00;99.90
6421;DHT22;3243;50.958;7.012;2022-10-16T15:38:11;18.90;99.90
6421;DHT22;3243;50.958;7.012;2022-10-16T15:40:39;18.90;99.90
6421;DHT22;3243;50.958;7.012;2022-10-16T15:43:06;18.80;99.90
6421;DHT22;3243;50.958;7.012;2022-10-16T15:45:34;18.80;99.90
6421;DHT22;3243;50.958;7.012;2022-10-16T15:48:00;18.70;99.90
6421;DHT22;3243;50.958;7.012;2022-10-16T15:50:27;18.70;99.90
6421;DHT22;3243;50.958;7.012;2022-10-16T15:52:54;18.60;99.90
6421;DHT22;3243;50.958;7.012;2022-10-16T15:55:20;18.50;99.90
6421;DHT22;3243;50.958;7.012;2022-10-16T15:57:47;18.40;99.90
6421;DHT22;3243;50.958;7.012;2022-10-16T16:00:16;18.40;99.90
6421;DHT22;3243;50.958;7.012;2022-10-16T16:02:50;18.40;99.90
6421;DHT22;3243;50.958;7.012;2022-10-16T16:05:17;18.40;99.90
6421;DHT22;3243;50.958;7.012;2022-10-16T16:07:44;18.30;99.90
6421;DHT22;3243;50.958;7.012;2022-10-16T16:10:11;18.30;99.90
6421;DHT22;3243;50.958;7.012;2022-10-16T16:12:38;18.30;99.90
6421;DHT22;3243;50.958;7.012;2022-10-16T16:15:06;18.20;99.90
6421;DHT22;3243;50.958;7.012;2022-10-16T16:17:34;18.20;99.90
6421;DHT22;3243;50.958;7.012;2022-10-16T16:20:01;18.10;99.90
6421;DHT22;3243;50.958;7.012;2022-10-16T16:22:29;18.00;99.90
6421;DHT22;3243;50.958;7.012;2022-10-16T16:24:56;18.00;99.90
6421;DHT22;3243;50.958;7.012;2022-10-16T16:27:23;18.00;99.90
6421;DHT22;3243;50.958;7.012;2022-10-16T16:29:52;18.00;99.90
6421;DHT22;3243;50.958;7.012;2022-10-16T16:32:19;18.00;99.90
6421;DHT22;3243;50.958;7.012;2022-10-16T16:34:46;17.90;99.90
6421;DHT22;3243;50.958;7.012;2022-10-16T16:37:13;17.90;99.90
6421;DHT22;3243;50.958;7.012;2022-10-16T16:39:40;17.90;99.90
6421;DHT22;3243;50.958;7.012;2022-10-16T16:42:07;17.90;99.90
6421;DHT22;3243;50.958;7.012;2022-10-16T16:44:34;17.80;99.90
6421;DHT22;3243;50.958;7.012;2022-10-16T16:47:04;19.10;99.90
6421;DHT22;3243;50.958;7.012;2022-10-16T16:49:31;17.70;99.90
6421;DHT22;3243;50.958;7.012;2022-10-16T16:51:58;17.60;99.90
6421;DHT22;3243;50.958;7.012;2022-10-16T16:54:24;17.60;99.90
6421;DHT22;3243;50.958;7.012;2022-10-16T16:56:51;17.60;99.90
6421;DHT22;3243;50.958;7.012;2022-10-16T16:59:20;17.60;99.90
6421;DHT22;3243;50.958;7.012;2022-10-16T17:01:48;17.50;99.90
6421;DHT22;3243;50.958;7.012;2022-10-16T17:04:22;17.50;99.90
6421;DHT22;3243;50.958;7.012;2022-10-16T17:06:49;17.50;99.90
6421;DHT22;3243;50.958;7.012;2022-10-16T17:09:15;17.50;99.90
6421;DHT22;3243;50.958;7.012;2022-10-16T17:11:43;17.60;99.90
6421;DHT22;3243;50.958;7.012;2022-10-16T17:14:11;17.50;99.90
6421;DHT22;3243;50.958;7.012;2022-10-16T17:16:38;17.60;99.90
6421;DHT22;3243;50.958;7.012;2022-10-16T17:19:07;17.50;99.90
6421;DHT22;3243;50.958;7.012;2022-10-16T17:21:35;17.60;99.90
6421;DHT22;3243;50.958;7.012;2022-10-16T17:24:02;17.60;99.90
6421;DHT22;3243;50.958;7.012;2022-10-16T17:26:29;17.60;99.90
6421;DHT22;3243;50.958;7.012;2022-10-16T17:28:59;17.50;99.90
6421;DHT22;3243;50.958;7.012;2022-10-16T17:31:33;17.50;99.90
6421;DHT22;3243;50.958;7.012;2022-10-16T17:34:01;17.50;99.90
6421;DHT22;3243;50.958;7.012;2022-10-16T17:36:31;17.50;99.90
6421;DHT22;3243;50.958;7.012;2022-10-16T17:39:01;17.50;99.90
6421;DHT22;3243;50.958;7.012;2022-10-16T17:41:31;17.50;99.90
6421;DHT22;3243;50.958;7.012;2022-10-16T17:43:57;17.50;99.90
6421;DHT22;3243;50.958;7.012;2022-10-16T17:46:25;17.50;99.90
6421;DHT22;3243;50.958;7.012;2022-10-16T17:48:53;17.50;99.90
6421;DHT22;3243;50.958;7.012;2022-10-16T17:51:23;17.40;99.90
6421;DHT22;3243;50.958;7.012;2022-10-16T17:53:59;17.40;99.90
6421;DHT22;3243;50.958;7.012;2022-10-16T17:56:27;17.40;99.90
6421;DHT22;3243;50.958;7.012;2022-10-16T17:58:56;17.40;99.90
6421;DHT22;3243;50.958;7.012;2022-10-16T18:01:28;17.40;99.90
6421;DHT22;3243;50.958;7.012;2022-10-16T18:03:58;17.40;99.90
6421;DHT22;3243;50.958;7.012;2022-10-16T18:06:25;17.40;99.90
6421;DHT22;3243;50.958;7.012;2022-10-16T18:08:53;17.40;99.90
6421;DHT22;3243;50.958;7.012;2022-10-16T18:11:21;17.30;99.90
6421;DHT22;3243;50.958;7.012;2022-10-16T18:13:51;17.30;99.90
6421;DHT22;3243;50.958;7.012;2022-10-16T18:16:18;17.30;99.90
6421;DHT22;3243;50.958;7.012;2022-10-16T18:18:46;17.30;99.90
6421;DHT22;3243;50.958;7.012;2022-10-16T18:21:15;17.30;99.90
6421;DHT22;3243;50.958;7.012;2022-10-16T18:23:44;17.30;99.90
6421;DHT22;3243;50.958;7.012;2022-10-16T18:26:18;17.30;99.90
6421;DHT22;3243;50.958;7.012;2022-10-16T18:28:45;17.30;99.90
6421;DHT22;3243;50.958;7.012;2022-10-16T18:31:13;17.30;99.90
6421;DHT22;3243;50.958;7.012;2022-10-16T18:33:42;17.30;99.90
6421;DHT22;3243;50.958;7.012;2022-10-16T18:36:14;17.30;99.90
6421;DHT22;3243;50.958;7.012;2022-10-16T18:38:41;17.20;99.90
6421;DHT22;3243;50.958;7.012;2022-10-16T18:41:09;17.10;99.90
6421;DHT22;3243;50.958;7.012;2022-10-16T18:43:37;17.10;99.90
6421;DHT22;3243;50.958;7.012;2022-10-16T18:46:09;17.10;99.90
6421;DHT22;3243;50.958;7.012;2022-10-16T18:48:38;17.10;99.90
6421;DHT22;3243;50.958;7.012;2022-10-16T18:53:41;17.20;99.90
6421;DHT22;3243;50.958;7.012;2022-10-16T18:56:09;17.20;99.90
6421;DHT22;3243;50.958;7.012;2022-10-16T18:58:36;17.20;99.90
6421;DHT22;3243;50.958;7.012;2022-10-16T19:01:05;17.20;99.90
6421;DHT22;3243;50.958;7.012;2022-10-16T19:03:32;17.20;99.90